Time;durP1;ratioP1;P1;durP2;ratioP2;P2;SDS_P1;SDS_P2;PMS_P1;PMS_P2;Temp;Humidity;BMP_temperature;BMP_pressure;BME280_temperature;BME280_humidity;BME280_pressure;Samples;Min_cycle;Max_cycle;Signal;HPM_P1;HPM_P2
2022/08/11 00:00:42;;;;;;;10.88;8.75;;;18.20;85.40;;;;;;5056460;28;20127;-79
2022/08/11 00:03:12;;;;;;;9.82;8.85;;;18.20;85.10;;;;;;5056456;28;20094;-79
2022/08/11 00:05:54;;;;;;;11.48;8.98;;;18.20;85.20;;;;;;5072993;28;20098;-80
2022/08/11 00:08:25;;;;;;;10.25;7.82;;;18.20;85.30;;;;;;5056615;28;20072;-79
2022/08/11 00:10:55;;;;;;;13.95;8.68;;;18.20;84.90;;;;;;5073296;28;20123;-79
2022/08/11 00:13:21;;;;;;;9.77;8.43;;;18.20;84.90;;;;;;5056287;28;20079;-80
2022/08/11 00:15:48;;;;;;;10.85;8.50;;;18.20;85.10;;;;;;5039580;28;20047;-79
2022/08/11 00:18:15;;;;;;;8.65;6.88;;;18.20;85.20;;;;;;5056031;28;20043;-79
2022/08/11 00:20:43;;;;;;;9.60;8.50;;;18.20;85.20;;;;;;5056489;28;20450;-79
2022/08/11 00:23:12;;;;;;;9.35;8.27;;;18.20;85.40;;;;;;5072759;28;20048;-80
2022/08/11 00:25:44;;;;;;;11.02;8.50;;;18.20;85.00;;;;;;5072790;28;20047;-80
2022/08/11 00:28:30;;;;;;;13.23;9.05;;;18.20;85.10;;;;;;5056038;28;20041;-79
2022/08/11 00:31:00;;;;;;;12.45;9.07;;;18.20;85.10;;;;;;5072600;28;20033;-79
2022/08/11 00:33:41;;;;;;;9.73;8.73;;;18.10;85.00;;;;;;5055908;28;20079;-79
2022/08/11 00:36:10;;;;;;;12.60;8.93;;;18.10;85.20;;;;;;5055895;28;20044;-79
2022/08/11 00:38:42;;;;;;;11.80;9.05;;;18.10;85.00;;;;;;5055937;28;20101;-78
2022/08/11 00:41:29;;;;;;;16.00;10.27;;;18.00;85.50;;;;;;5072354;28;20048;-78
2022/08/11 00:44:30;;;;;;;12.43;9.40;;;18.00;85.70;;;;;;5055881;28;20463;-79
2022/08/11 00:47:14;;;;;;;11.93;8.70;;;18.00;85.70;;;;;;5071530;28;20047;-79
2022/08/11 00:50:01;;;;;;;12.98;10.48;;;18.00;85.60;;;;;;5072133;28;20409;-79
2022/08/11 00:52:27;;;;;;;11.35;8.35;;;17.90;85.70;;;;;;5072613;28;20048;-79
2022/08/11 00:54:58;;;;;;;14.15;11.43;;;17.90;85.70;;;;;;5072410;28;20119;-79
2022/08/11 00:57:45;;;;;;;11.02;9.20;;;18.00;85.80;;;;;;5055383;28;20207;-79
2022/08/11 01:00:22;;;;;;;10.68;9.52;;;18.00;85.90;;;;;;5072132;28;20044;-79
2022/08/11 01:03:28;;;;;;;10.70;9.60;;;17.90;85.90;;;;;;5055391;28;20044;-79
2022/08/11 01:06:16;;;;;;;12.15;10.43;;;17.90;86.30;;;;;;5055439;28;20094;-79
2022/08/11 01:08:56;;;;;;;10.60;9.40;;;17.80;86.20;;;;;;5071884;28;20075;-79
2022/08/11 01:12:15;;;;;;;14.48;10.65;;;17.80;86.30;;;;;;5072182;28;20028;-79
2022/08/11 01:14:44;;;;;;;15.05;10.88;;;17.80;86.20;;;;;;5014374;28;20038;-79
2022/08/11 01:18:02;;;;;;;12.77;10.07;;;17.70;86.00;;;;;;5068305;28;20044;-79
2022/08/11 01:21:06;;;;;;;12.32;9.88;;;17.70;86.10;;;;;;5038437;28;20493;-78
2022/08/11 01:23:53;;;;;;;12.60;10.35;;;17.70;85.90;;;;;;5048774;28;20060;-79
2022/08/11 01:26:38;;;;;;;12.95;9.70;;;17.70;85.60;;;;;;5055022;28;20094;-79
2022/08/11 01:29:22;;;;;;;;;;;17.60;85.40;;;;;;5072374;28;20043;-79
2022/08/11 01:32:39;;;;;;;12.32;9.40;;;17.50;85.80;;;;;;5072170;28;20361;-79
2022/08/11 01:35:13;;;;;;;11.68;10.50;;;17.50;85.60;;;;;;5046371;28;20087;-79
2022/08/11 01:37:58;;;;;;;12.95;9.75;;;17.50;85.60;;;;;;5071657;28;20051;-79
2022/08/11 01:40:49;;;;;;;14.57;10.63;;;17.50;85.60;;;;;;5071662;28;20047;-79
2022/08/11 01:47:49;;;;;;;10.80;9.77;;;17.40;85.50;;;;;;5071463;28;20055;-78
2022/08/11 01:50:21;;;;;;;10.52;9.45;;;17.40;85.60;;;;;;5017544;28;20037;-79
2022/08/11 01:53:11;;;;;;;12.65;9.18;;;17.40;85.50;;;;;;5054921;28;20098;-78
2022/08/11 01:55:48;;;;;;;13.38;10.27;;;17.30;85.60;;;;;;5054819;28;20056;-79
2022/08/11 01:58:49;;;;;;;12.73;10.30;;;17.30;85.50;;;;;;5073709;28;20049;-79
2022/08/11 02:02:01;;;;;;;15.60;9.98;;;17.30;85.50;;;;;;5055853;28;20059;-79
2022/08/11 02:04:48;;;;;;;13.73;10.27;;;17.30;85.70;;;;;;5001871;28;20075;-79
2022/08/11 02:07:29;;;;;;;14.13;10.00;;;17.30;85.50;;;;;;5001530;28;20052;-79
2022/08/11 02:13:14;;;;;;;14.88;10.93;;;17.20;85.50;;;;;;5075195;28;20132;-79
2022/08/11 02:15:49;;;;;;;13.98;10.20;;;17.20;85.70;;;;;;5075235;28;20041;-79
2022/08/11 02:18:23;;;;;;;13.48;10.40;;;17.10;85.60;;;;;;5075156;28;20048;-79
2022/08/11 02:24:02;;;;;;;11.18;9.60;;;17.10;85.60;;;;;;5074770;28;20519;-79
2022/08/11 02:26:39;;;;;;;13.38;11.07;;;17.10;85.50;;;;;;5058215;28;20048;-79
2022/08/11 02:29:23;;;;;;;13.38;11.02;;;17.00;85.30;;;;;;5058185;28;20070;-79
2022/08/11 02:35:21;;;;;;;13.88;11.48;;;16.90;85.70;;;;;;5075069;28;20392;-78
2022/08/11 02:38:26;;;;;;;12.27;9.93;;;16.90;85.80;;;;;;5074675;28;20051;-79
2022/08/11 02:44:27;;;;;;;13.82;11.32;;;16.90;85.70;;;;;;5074564;28;20095;-78
2022/08/11 02:47:13;;;;;;;13.02;10.27;;;16.90;85.60;;;;;;5047038;28;20102;-78
2022/08/11 02:50:00;;;;;;;11.50;10.13;;;16.80;85.80;;;;;;5057834;28;20492;-79
2022/08/11 02:53:08;;;;;;;13.50;9.90;;;16.90;85.80;;;;;;5057873;28;20051;-79
2022/08/11 02:55:54;;;;;;;13.30;10.38;;;16.80;85.90;;;;;;5057848;28;20040;-79
2022/08/11 02:59:48;;;;;;;15.70;10.57;;;16.80;85.80;;;;;;5057602;28;20033;-78
2022/08/11 03:01:43;;;;;;;12.70;10.27;;;16.80;85.80;;;;;;5074450;28;20044;-78
2022/08/11 03:04:39;;;;;;;12.70;9.23;;;16.80;85.90;;;;;;5057625;28;20048;-79
2022/08/11 03:07:38;;;;;;;13.02;10.30;;;16.70;86.10;;;;;;5052915;28;20453;-78
2022/08/11 03:10:12;;;;;;;11.95;10.75;;;16.70;86.10;;;;;;5073411;28;20546;-79
2022/08/11 03:19:02;;;;;;;15.70;11.52;;;16.60;86.20;;;;;;5074282;28;20052;-79
2022/08/11 03:21:50;;;;;;;13.23;10.48;;;16.70;86.30;;;;;;5057748;28;20115;-78
2022/08/11 03:24:24;;;;;;;13.52;11.15;;;16.60;86.30;;;;;;5074627;28;20150;-79
2022/08/11 03:27:13;;;;;;;15.20;11.00;;;16.60;86.10;;;;;;5073866;28;20044;-79
2022/08/11 03:30:06;;;;;;;12.95;10.27;;;16.60;86.20;;;;;;5073950;28;20059;-79
2022/08/11 03:32:39;;;;;;;12.00;10.50;;;16.60;86.40;;;;;;5065874;28;20056;-79
2022/08/11 03:35:09;;;;;;;14.32;10.15;;;16.50;86.30;;;;;;5073743;28;20079;-78
2022/08/11 03:37:59;;;;;;;17.55;11.93;;;16.50;86.50;;;;;;5073682;28;20040;-78
2022/08/11 03:43:59;;;;;;;14.55;10.60;;;16.50;86.60;;;;;;5073524;28;20106;-79
2022/08/11 03:46:31;;;;;;;12.35;11.00;;;16.50;86.60;;;;;;5073329;28;20052;-79
2022/08/11 03:49:35;;;;;;;13.25;11.25;;;16.40;86.50;;;;;;5073664;28;20055;-79
2022/08/11 03:52:36;;;;;;;13.38;11.48;;;16.40;86.60;;;;;;5073296;28;20036;-79
2022/08/11 03:55:13;;;;;;;12.48;10.55;;;16.40;86.50;;;;;;5073421;28;20040;-78
2022/08/11 03:57:58;;;;;;;12.07;10.80;;;16.40;86.50;;;;;;5073611;28;20063;-79
2022/08/11 04:00:51;;;;;;;15.40;10.75;;;16.40;86.70;;;;;;5056617;28;20079;-78
2022/08/11 04:03:16;;;;;;;12.50;10.65;;;16.40;86.90;;;;;;5074290;28;20102;-79
2022/08/11 04:06:13;;;;;;;14.50;10.73;;;16.40;86.70;;;;;;5057848;28;20045;-78
2022/08/11 04:09:16;;;;;;;14.82;10.02;;;16.40;87.00;;;;;;5057661;28;20041;-79
2022/08/11 04:11:54;;;;;;;15.32;10.20;;;16.40;87.10;;;;;;5058135;28;20054;-78
2022/08/11 04:17:34;;;;;;;11.23;10.13;;;16.40;87.20;;;;;;5073554;28;20044;-79
2022/08/11 04:20:31;;;;;;;11.88;10.63;;;16.40;87.30;;;;;;5056370;28;20427;-79
2022/08/11 04:23:26;;;;;;;14.95;11.25;;;16.40;87.40;;;;;;5073181;28;20404;-79
2022/08/11 04:26:32;;;;;;;13.35;10.48;;;16.40;87.30;;;;;;5072715;28;20127;-79
2022/08/11 04:29:16;;;;;;;12.45;10.38;;;16.30;87.40;;;;;;5025798;28;20044;-79
2022/08/11 04:32:11;;;;;;;12.85;11.48;;;16.40;87.30;;;;;;5055981;28;20071;-79
2022/08/11 04:34:57;;;;;;;12.18;10.57;;;16.30;87.30;;;;;;5019892;28;20044;-79
2022/08/11 04:37:55;;;;;;;11.68;10.43;;;16.30;87.40;;;;;;5072507;28;20036;-79
2022/08/11 04:40:55;;;;;;;12.77;11.48;;;16.30;87.30;;;;;;5072679;28;20123;-78
2022/08/11 04:44:06;;;;;;;15.18;11.52;;;16.30;87.40;;;;;;5056038;28;20102;-79
2022/08/11 04:46:31;;;;;;;14.57;11.05;;;16.40;87.50;;;;;;5055605;28;20083;-79
2022/08/11 05:01:49;;;;;;;9.68;8.68;;;16.40;88.00;;;;;;5072103;28;20230;-76
2022/08/11 05:07:20;;;;;;;13.93;10.50;;;16.50;87.30;;;;;;5072020;28;20056;-78
2022/08/11 05:10:20;;;;;;;16.38;11.02;;;16.60;87.30;;;;;;5072087;28;20048;-77
2022/08/11 05:36:11;;;;;;;15.35;12.00;;;17.00;87.90;;;;;;5077326;28;20058;-77
2022/08/11 05:58:09;;;;;;;8.70;7.78;;;17.60;87.10;;;;;;5071330;28;20412;-79
2022/08/11 06:00:45;;;;;;;12.68;9.88;;;17.70;86.90;;;;;;5055010;28;20044;-80
2022/08/11 06:03:21;;;;;;;9.00;6.78;;;17.80;87.00;;;;;;5054786;28;20048;-79
2022/08/11 06:05:47;;;;;;;11.25;9.07;;;17.90;86.80;;;;;;5039509;28;20045;-80
2022/08/11 06:08:13;;;;;;;12.35;10.65;;;17.90;86.60;;;;;;5054600;28;20048;-79
2022/08/11 06:10:42;;;;;;;17.48;12.10;;;18.10;87.00;;;;;;5071840;28;20481;-79
2022/08/11 06:13:13;;;;;;;13.70;8.60;;;18.20;86.80;;;;;;5054920;28;20040;-79
2022/08/11 06:15:47;;;;;;;11.15;9.02;;;18.20;86.60;;;;;;5055098;28;20075;-79
2022/08/11 06:18:14;;;;;;;15.20;10.63;;;18.40;86.60;;;;;;5071324;28;20102;-81
2022/08/11 06:20:48;;;;;;;15.18;10.77;;;18.40;86.40;;;;;;5054898;28;20101;-78
2022/08/11 06:23:19;;;;;;;11.38;9.93;;;18.50;86.60;;;;;;5071109;28;20040;-78
2022/08/11 06:25:46;;;;;;;12.90;10.43;;;18.60;86.20;;;;;;5071205;28;20048;-77
2022/08/11 06:28:14;;;;;;;13.25;10.32;;;18.70;86.00;;;;;;5071090;28;20036;-77
2022/08/11 06:30:43;;;;;;;16.08;11.13;;;18.90;85.60;;;;;;5071161;28;20037;-77
2022/08/11 06:33:29;;;;;;;14.55;10.43;;;18.90;85.40;;;;;;5070911;28;20036;-78
2022/08/11 06:36:14;;;;;;;16.40;11.00;;;19.00;85.30;;;;;;5071405;28;20048;-76
2022/08/11 06:38:55;;;;;;;14.20;10.13;;;19.20;85.20;;;;;;5071147;28;20040;-77
2022/08/11 06:41:31;;;;;;;12.15;9.68;;;19.30;85.40;;;;;;5054448;28;20044;-78
2022/08/11 06:44:15;;;;;;;11.85;9.75;;;19.40;85.10;;;;;;5054577;28;20040;-77
2022/08/11 06:46:45;;;;;;;13.03;10.10;;;19.40;84.90;;;;;;5074818;28;20442;-77
2022/08/11 06:52:03;;;;;;;11.52;7.88;;;19.60;84.60;;;;;;5074560;28;20059;-76
2022/08/11 06:54:32;;;;;;;9.77;8.30;;;19.70;84.40;;;;;;5074615;28;20083;-76
2022/08/11 07:02:48;;;;;;;10.80;9.05;;;19.90;83.20;;;;;;5074361;28;20066;-77
2022/08/11 07:05:36;;;;;;;9.05;7.88;;;20.00;83.20;;;;;;5074595;28;20056;-77
2022/08/11 07:17:48;;;;;;;7.63;6.82;;;20.50;82.50;;;;;;5074064;28;20105;-76
2022/08/11 07:28:57;;;;;;;9.35;6.80;;;20.90;81.80;;;;;;5073746;28;20512;-77
2022/08/11 07:31:25;;;;;;;8.95;6.32;;;21.00;81.60;;;;;;5074087;28;20036;-77
2022/08/11 07:34:06;;;;;;;7.90;6.28;;;21.10;81.20;;;;;;5057090;28;20045;-78
2022/08/11 07:36:36;;;;;;;6.85;5.65;;;21.20;80.50;;;;;;5073996;28;20067;-78
2022/08/11 07:39:02;;;;;;;6.78;5.22;;;21.30;80.20;;;;;;5073652;28;20080;-78
2022/08/11 07:41:32;;;;;;;9.25;7.00;;;21.40;80.00;;;;;;5040374;28;20044;-77
2022/08/11 07:44:07;;;;;;;10.38;7.05;;;21.50;79.60;;;;;;5073556;28;20419;-78
2022/08/11 07:52:26;;;;;;;7.95;5.63;;;21.70;78.70;;;;;;5073420;28;20044;-76
2022/08/11 07:54:54;;;;;;;6.53;5.93;;;21.90;78.40;;;;;;5073219;28;20044;-78
2022/08/11 08:19:20;;;;;;;6.13;4.68;;;23.00;76.00;;;;;;5073122;28;20047;-75
2022/08/11 08:21:47;;;;;;;7.18;4.90;;;23.30;75.80;;;;;;5072393;28;20044;-78
2022/08/11 08:24:14;;;;;;;5.82;4.28;;;23.30;74.60;;;;;;5072632;28;20528;-76
2022/08/11 08:26:57;;;;;;;7.97;4.78;;;23.40;74.40;;;;;;5072807;28;20491;-77
2022/08/11 08:32:16;;;;;;;6.60;3.80;;;23.70;73.80;;;;;;5072523;28;20056;-76
2022/08/11 08:34:43;;;;;;;6.47;3.42;;;23.90;73.30;;;;;;5072834;28;20043;-77
2022/08/11 08:37:09;;;;;;;5.85;3.50;;;23.90;72.10;;;;;;5071874;28;20496;-78
2022/08/11 08:39:36;;;;;;;5.22;3.60;;;24.00;71.10;;;;;;5071709;28;20492;-76
2022/08/11 08:42:10;;;;;;;4.93;3.30;;;24.10;70.80;;;;;;5071025;28;20044;-78
2022/08/11 08:44:40;;;;;;;5.93;3.90;;;24.30;70.40;;;;;;5072378;28;20044;-77
2022/08/11 08:47:09;;;;;;;6.57;4.18;;;24.40;69.90;;;;;;5072153;28;20392;-76
2022/08/11 08:49:38;;;;;;;5.28;4.07;;;24.50;69.20;;;;;;5072262;28;20044;-78
2022/08/11 08:52:06;;;;;;;5.55;4.82;;;24.60;69.30;;;;;;5055860;28;20384;-79
2022/08/11 08:54:41;;;;;;;8.43;5.15;;;24.80;69.20;;;;;;5055814;28;20511;-75
2022/08/11 08:57:08;;;;;;;4.13;3.45;;;24.90;68.70;;;;;;5072020;28;20050;-76
2022/08/11 08:59:43;;;;;;;5.22;3.78;;;25.00;68.60;;;;;;5072369;28;20447;-78
2022/08/11 09:02:12;;;;;;;5.88;3.10;;;25.20;67.80;;;;;;5072105;28;20085;-76
2022/08/11 09:04:39;;;;;;;5.60;3.60;;;25.30;68.00;;;;;;5072143;28;20072;-77
2022/08/11 09:07:11;;;;;;;6.05;2.65;;;25.40;66.80;;;;;;5071250;28;20074;-78
2022/08/11 09:09:42;;;;;;;3.05;2.40;;;25.50;65.60;;;;;;5072296;28;20389;-79
2022/08/11 09:12:10;;;;;;;7.47;2.95;;;25.60;65.20;;;;;;5072244;28;20044;-75
2022/08/11 09:17:22;;;;;;;5.53;2.60;;;25.90;63.10;;;;;;5071770;28;20082;-76
2022/08/11 09:19:57;;;;;;;5.07;2.90;;;26.00;62.90;;;;;;5071841;28;20060;-76
2022/08/11 09:28:00;;;;;;;9.68;2.83;;;26.40;60.60;;;;;;5071905;28;20109;-74
2022/08/11 09:30:27;;;;;;;4.32;2.78;;;26.50;59.70;;;;;;5072921;28;20040;-77
2022/08/11 09:32:56;;;;;;;5.78;2.40;;;26.60;60.10;;;;;;5071979;28;20445;-77
2022/08/11 09:35:27;;;;;;;5.22;2.72;;;26.80;58.00;;;;;;5072062;28;20054;-78
2022/08/11 09:40:45;;;;;;;4.07;2.90;;;27.00;56.50;;;;;;5072149;28;20045;-76
2022/08/11 09:45:59;;;;;;;289.85;30.35;;;27.10;51.80;;;;;;5072066;28;20052;-76
2022/08/11 09:48:28;;;;;;;14.95;4.10;;;27.30;52.50;;;;;;5055566;28;20469;-76
2022/08/11 09:50:58;;;;;;;7.18;2.75;;;27.40;51.10;;;;;;5072163;28;20037;-77
2022/08/11 09:53:26;;;;;;;41.78;5.25;;;27.40;50.80;;;;;;5071903;28;20036;-76
2022/08/11 09:55:53;;;;;;;10.13;2.83;;;27.50;50.70;;;;;;5071955;28;20047;-76
2022/08/11 09:58:21;;;;;;;5.82;3.22;;;27.70;50.30;;;;;;5072062;28;20473;-77
2022/08/11 10:00:49;;;;;;;4.18;3.08;;;27.80;50.10;;;;;;5071538;28;20041;-77
2022/08/11 10:03:20;;;;;;;4.90;2.38;;;27.90;49.50;;;;;;5085322;28;20055;-78
2022/08/11 10:08:52;;;;;;;3.15;2.67;;;28.10;48.60;;;;;;5091434;28;20040;-78
2022/08/11 10:11:22;;;;;;;6.13;2.55;;;28.30;49.30;;;;;;5091366;28;20082;-75
2022/08/11 10:16:40;;;;;;;6.93;2.70;;;28.40;48.40;;;;;;5080116;28;20090;-76
2022/08/11 10:19:08;;;;;;;4.10;2.55;;;28.50;46.90;;;;;;5064492;28;20491;-77
2022/08/11 10:21:43;;;;;;;6.20;2.47;;;28.60;46.70;;;;;;5093203;28;20499;-76
2022/08/11 10:34:55;;;;;;;5.53;2.53;;;29.00;45.10;;;;;;5081035;28;20076;-77
2022/08/11 10:37:23;;;;;;;6.75;2.50;;;29.20;45.60;;;;;;5095087;28;20040;-76
2022/08/11 10:39:50;;;;;;;15.75;3.67;;;29.20;45.40;;;;;;5095064;28;20055;-76
2022/08/11 10:47:33;;;;;;;4.18;2.03;;;29.40;45.00;;;;;;5094707;28;20119;-77
2022/08/11 10:47:53;;;;;;;4.05;1.98;;;29.50;44.70;;;;;;5081114;28;20462;-76
2022/08/11 10:58:45;;;;;;;4.18;2.20;;;30.00;43.40;;;;;;5095008;28;20546;-76
2022/08/11 11:01:13;;;;;;;3.20;1.98;;;30.10;40.80;;;;;;5077978;28;20044;-77
2022/08/11 11:03:40;;;;;;;4.25;2.30;;;30.00;41.20;;;;;;5094942;28;20083;-76
2022/08/11 11:06:24;;;;;;;3.47;2.20;;;30.20;42.00;;;;;;5094473;28;20048;-78
2022/08/11 11:08:52;;;;;;;;;;;30.40;43.20;;;;;;5078198;28;20089;-77
2022/08/11 11:11:20;;;;;;;6.00;2.40;;;30.50;41.80;;;;;;5094363;28;19916;-76
2022/08/11 11:19:24;;;;;;;4.22;2.25;;;30.70;42.70;;;;;;5094295;28;20121;-78
2022/08/11 11:21:53;;;;;;;5.95;2.60;;;30.70;42.50;;;;;;5093818;28;20089;-76
2022/08/11 11:24:59;;;;;;;7.25;2.60;;;30.80;42.90;;;;;;5093838;28;20481;-75
2022/08/11 11:27:39;;;;;;;4.18;2.50;;;30.90;42.50;;;;;;5063594;28;20044;-76
2022/08/11 11:30:10;;;;;;;3.35;2.20;;;31.00;42.90;;;;;;5093282;28;20044;-75
2022/08/11 11:32:50;;;;;;;13.63;3.17;;;31.10;42.70;;;;;;5077233;28;20036;-75
2022/08/11 11:35:30;;;;;;;2.75;1.98;;;31.20;41.50;;;;;;5094211;28;20072;-75
2022/08/11 11:37:56;;;;;;;3.88;1.98;;;31.20;41.20;;;;;;5094126;28;20044;-75
2022/08/11 11:40:27;;;;;;;7.15;2.90;;;31.20;41.20;;;;;;5094178;28;20044;-75
2022/08/11 11:42:57;;;;;;;7.28;2.50;;;31.10;39.90;;;;;;5094211;28;20456;-75
2022/08/11 11:45:24;;;;;;;3.33;2.10;;;31.20;39.60;;;;;;5093981;28;20452;-75
2022/08/11 11:47:52;;;;;;;5.55;4.22;;;31.30;40.30;;;;;;5093791;28;20039;-75
2022/08/11 11:50:36;;;;;;;4.65;2.80;;;31.10;39.70;;;;;;5093729;28;20048;-75
2022/08/11 11:53:05;;;;;;;4.13;2.00;;;31.20;38.90;;;;;;5093954;28;20050;-75
2022/08/11 11:55:32;;;;;;;6.85;2.33;;;31.20;37.50;;;;;;5093749;28;20081;-75
2022/08/11 12:03:33;;;;;;;3.42;2.38;;;31.10;37.30;;;;;;5093931;28;20059;-75
2022/08/11 12:05:59;;;;;;;3.97;2.30;;;31.40;38.20;;;;;;5076990;28;20481;-74
2022/08/11 12:08:26;;;;;;;3.05;2.00;;;31.50;39.30;;;;;;5093890;28;20106;-74
2022/08/11 12:13:49;;;;;;;4.07;1.98;;;31.60;38.90;;;;;;5093735;28;20177;-73
2022/08/11 12:16:16;;;;;;;4.43;2.83;;;31.70;38.20;;;;;;5076762;28;20044;-73
2022/08/11 12:18:46;;;;;;;5.25;1.92;;;31.80;37.60;;;;;;5093799;28;20136;-74
2022/08/11 12:21:14;;;;;;;4.03;2.10;;;31.90;37.10;;;;;;5093341;28;20086;-74
2022/08/11 12:29:14;;;;;;;7.55;2.80;;;31.80;35.80;;;;;;5093417;28;20050;-73
2022/08/11 12:31:41;;;;;;;3.67;2.05;;;32.00;37.30;;;;;;5093567;28;20066;-74
2022/08/11 12:34:12;;;;;;;5.63;2.38;;;32.20;36.90;;;;;;5093349;28;20036;-73
2022/08/11 12:36:58;;;;;;;4.70;2.63;;;32.30;36.40;;;;;;5093607;28;20044;-74
2022/08/11 12:53:28;;;;;;;6.32;2.20;;;33.00;36.40;;;;;;5078938;28;20047;-74
2022/08/11 12:58:45;;;;;;;2.70;2.00;;;33.10;35.40;;;;;;5092880;28;20056;-75
2022/08/11 13:06:41;;;;;;;3.03;1.92;;;33.30;34.80;;;;;;5092618;28;20048;-75
2022/08/11 13:09:10;;;;;;;4.65;2.20;;;33.20;34.80;;;;;;5091629;28;20118;-73
2022/08/11 13:14:26;;;;;;;3.55;1.55;;;33.30;34.00;;;;;;5091805;28;20558;-74
2022/08/11 13:19:40;;;;;;;3.38;1.50;;;33.40;34.00;;;;;;5091924;28;20058;-73
2022/08/11 13:22:06;;;;;;;3.90;1.67;;;33.50;34.20;;;;;;5092133;28;20048;-74
2022/08/11 13:24:35;;;;;;;2.45;1.55;;;33.50;33.50;;;;;;5091813;28;20059;-74
2022/08/11 13:27:01;;;;;;;2.20;1.52;;;33.60;33.40;;;;;;5091923;28;20051;-74
2022/08/11 13:29:28;;;;;;;5.45;2.08;;;33.70;33.40;;;;;;5075372;28;20040;-76
2022/08/11 13:32:01;;;;;;;4.55;1.65;;;33.80;33.80;;;;;;5091969;28;20067;-74
2022/08/11 13:34:29;;;;;;;;;;;33.90;33.50;;;;;;5092280;28;20391;-76
2022/08/11 13:36:59;;;;;;;3.35;1.73;;;33.80;33.10;;;;;;5091927;28;20050;-74
2022/08/11 13:39:27;;;;;;;3.63;2.28;;;33.90;34.00;;;;;;5091774;28;20044;-74
2022/08/11 13:41:55;;;;;;;4.70;2.10;;;33.80;33.60;;;;;;5091814;28;20036;-74
2022/08/11 13:44:23;;;;;;;4.38;1.95;;;33.90;33.10;;;;;;5092043;28;20499;-73
2022/08/11 13:46:50;;;;;;;2.83;1.70;;;33.90;33.20;;;;;;5091641;28;20507;-74
2022/08/11 13:49:17;;;;;;;2.47;1.95;;;34.00;34.50;;;;;;5091712;28;20040;-73
2022/08/11 13:51:43;;;;;;;5.72;1.98;;;34.10;35.70;;;;;;5074899;28;20044;-75
2022/08/11 13:54:17;;;;;;;5.30;2.13;;;34.00;36.00;;;;;;5093930;28;20082;-75
2022/08/11 13:56:46;;;;;;;3.30;1.83;;;33.90;36.10;;;;;;5095947;28;20055;-75
2022/08/11 13:59:13;;;;;;;4.07;2.17;;;33.80;36.60;;;;;;5079165;28;20392;-73
2022/08/11 14:01:46;;;;;;;5.82;2.22;;;33.90;36.90;;;;;;5095926;28;20039;-75
2022/08/11 14:04:23;;;;;;;7.18;2.15;;;33.80;36.50;;;;;;5096118;28;20044;-76
2022/08/11 14:06:52;;;;;;;5.50;2.00;;;33.90;36.70;;;;;;5095781;28;20395;-74
2022/08/11 14:09:25;;;;;;;3.25;2.25;;;33.80;36.30;;;;;;5095642;28;20050;-75
2022/08/11 14:15:13;;;;;;;5.90;2.17;;;33.60;36.30;;;;;;5017793;28;20052;-77
2022/08/11 14:17:41;;;;;;;5.03;2.17;;;33.40;36.00;;;;;;5018084;28;20084;-77
2022/08/11 14:20:09;;;;;;;3.92;2.00;;;33.40;36.60;;;;;;5060548;28;20048;-78
2022/08/11 14:22:39;;;;;;;5.03;1.95;;;33.40;37.00;;;;;;5095695;28;20044;-79
2022/08/11 14:25:06;;;;;;;3.42;2.13;;;33.30;36.70;;;;;;5095247;28;20086;-77
2022/08/11 14:27:32;;;;;;;3.92;1.58;;;33.50;36.50;;;;;;5078485;28;20571;-78
2022/08/11 14:29:58;;;;;;;9.35;2.65;;;33.50;36.90;;;;;;5095252;28;20040;-76
2022/08/11 14:32:25;;;;;;;2.42;1.83;;;33.60;35.60;;;;;;5095215;28;20040;-77
2022/08/11 14:34:52;;;;;;;5.03;1.90;;;33.40;36.10;;;;;;5078266;28;20047;-77
2022/08/11 14:37:24;;;;;;;5.32;1.80;;;33.40;35.70;;;;;;5095128;28;20040;-77
2022/08/11 14:47:03;;;;;;;4.30;1.80;;;33.40;35.80;;;;;;5097106;28;20400;-77
2022/08/11 14:48:36;;;;;;;3.85;1.60;;;33.30;35.80;;;;;;5017149;28;20054;-76
2022/08/11 14:51:04;;;;;;;3.83;1.65;;;33.30;36.60;;;;;;5062387;28;20052;-76
2022/08/11 14:53:31;;;;;;;3.83;2.20;;;33.30;36.40;;;;;;5095148;28;20431;-75
2022/08/11 14:58:42;;;;;;;5.05;1.83;;;33.20;36.80;;;;;;5094699;28;20500;-76
2022/08/11 15:03:09;;;;;;;4.63;1.85;;;33.30;36.90;;;;;;5073798;28;20046;-78
2022/08/11 15:03:56;;;;;;;5.85;1.75;;;33.30;36.10;;;;;;5089901;28;20048;-76
2022/08/11 15:06:24;;;;;;;2.83;1.55;;;33.30;36.00;;;;;;5087095;28;20384;-76
2022/08/11 15:08:53;;;;;;;5.38;1.83;;;33.20;36.30;;;;;;5088637;28;20044;-76
2022/08/11 15:14:11;;;;;;;3.35;2.10;;;33.00;36.30;;;;;;5088961;28;20119;-76
2022/08/11 15:19:27;;;;;;;3.50;2.05;;;32.80;37.10;;;;;;5084950;28;20058;-77
2022/08/11 15:24:37;;;;;;;5.15;1.85;;;32.70;37.30;;;;;;5088013;28;20504;-76
2022/08/11 15:38:18;;;;;;;3.05;1.98;;;32.40;39.10;;;;;;5087879;28;20511;-76
2022/08/11 15:46:30;;;;;;;4.00;1.52;;;32.50;38.30;;;;;;5086852;28;20048;-75
2022/08/11 15:49:21;;;;;;;4.90;2.08;;;32.60;38.30;;;;;;5086018;28;20032;-76
2022/08/11 15:51:59;;;;;;;2.83;1.40;;;32.50;38.50;;;;;;5087801;28;20044;-76
2022/08/11 15:54:29;;;;;;;4.65;1.60;;;32.30;37.90;;;;;;5068909;28;20044;-76
2022/08/11 15:56:57;;;;;;;3.00;1.67;;;32.30;38.40;;;;;;5070300;28;20130;-76
2022/08/11 16:05:00;;;;;;;2.75;1.63;;;32.10;39.20;;;;;;5086155;28;20124;-76
2022/08/11 16:07:31;;;;;;;2.65;1.85;;;32.20;39.30;;;;;;5087289;28;20079;-75
2022/08/11 16:10:00;;;;;;;2.50;1.85;;;32.20;38.90;;;;;;5068904;28;20050;-75
2022/08/11 16:12:34;;;;;;;3.55;1.40;;;32.20;39.40;;;;;;5070208;28;20123;-76
2022/08/11 16:17:54;;;;;;;3.08;1.50;;;32.10;38.90;;;;;;5086109;28;20181;-75
2022/08/11 16:20:24;;;;;;;7.65;1.70;;;32.00;39.10;;;;;;5086040;28;20040;-75
2022/08/11 16:22:54;;;;;;;4.43;2.30;;;31.90;39.40;;;;;;5068460;28;20411;-75
2022/08/11 16:25:23;;;;;;;4.35;1.80;;;31.90;39.80;;;;;;5086795;28;20135;-75
2022/08/11 16:27:52;;;;;;;4.53;2.03;;;31.90;40.30;;;;;;5070103;28;20059;-75
2022/08/11 16:30:18;;;;;;;8.10;1.85;;;31.90;40.30;;;;;;5068626;28;20092;-75
2022/08/11 16:32:51;;;;;;;3.65;1.92;;;31.90;40.10;;;;;;5087194;28;20119;-75
2022/08/11 16:40:59;;;;;;;4.80;2.05;;;31.50;40.50;;;;;;5092690;28;20044;-74
2022/08/11 16:49:07;;;;;;;2.85;1.70;;;31.20;41.20;;;;;;5071393;28;20114;-74
2022/08/11 16:51:35;;;;;;;5.43;1.60;;;31.10;41.80;;;;;;5071110;28;20678;-75
2022/08/11 16:54:01;;;;;;;4.80;1.60;;;31.10;42.00;;;;;;5072223;28;20040;-75
2022/08/11 16:56:48;;;;;;;3.15;1.67;;;30.90;42.00;;;;;;5072243;28;20105;-74
2022/08/11 16:59:25;;;;;;;4.15;1.90;;;30.80;42.50;;;;;;5073357;28;20481;-74
2022/08/11 17:13:47;;;;;;;3.83;1.67;;;29.50;43.40;;;;;;5071941;28;20097;-74
2022/08/11 17:16:18;;;;;;;2.97;1.88;;;29.30;44.10;;;;;;5071983;28;20127;-74
2022/08/11 17:18:53;;;;;;;2.67;1.63;;;29.10;44.80;;;;;;5071853;28;20040;-75
2022/08/11 17:21:32;;;;;;;4.07;1.90;;;28.90;45.30;;;;;;5071934;28;20044;-75
2022/08/11 17:24:04;;;;;;;2.85;1.85;;;28.80;45.40;;;;;;5071930;28;20088;-75
2022/08/11 17:26:58;;;;;;;7.97;1.92;;;28.60;46.10;;;;;;5071731;28;20114;-75
2022/08/11 17:29:44;;;;;;;2.70;1.50;;;28.40;46.40;;;;;;5054699;28;20435;-75
2022/08/11 17:37:49;;;;;;;3.72;2.00;;;27.90;47.90;;;;;;5071481;28;20048;-74
2022/08/11 17:40:23;;;;;;;4.18;1.90;;;27.70;48.30;;;;;;5071569;28;20037;-74
2022/08/11 17:48:32;;;;;;;2.88;1.80;;;27.40;49.50;;;;;;5071794;28;20396;-74
2022/08/11 17:51:11;;;;;;;4.63;2.00;;;27.30;50.00;;;;;;5071543;28;20044;-74
2022/08/11 18:04:49;;;;;;;3.50;1.85;;;26.70;50.80;;;;;;5071423;28;20127;-74
